sensor_id;sensor_type;location;lat;lon;timestamp;pressure;altitude;pressure_sealevel;temperature;humidity
64632;BME280;58358;50.936;0.246;2023-04-02T00:00:17;101075.70;;;3.78;96.54
64632;BME280;58358;50.936;0.246;2023-04-02T00:02:44;101076.39;;;4.96;92.08
64632;BME280;58358;50.936;0.246;2023-04-02T00:07:27;101082.03;;;3.93;98.07
64632;BME280;58358;50.936;0.246;2023-04-02T00:09:51;101087.69;;;3.77;99.29
64632;BME280;58358;50.936;0.246;2023-04-02T00:12:18;101096.25;;;3.81;99.88
64632;BME280;58358;50.936;0.246;2023-04-02T00:14:47;101087.73;;;4.15;99.30
64632;BME280;58358;50.936;0.246;2023-04-02T00:17:09;101091.51;;;4.61;98.37
64632;BME280;58358;50.936;0.246;2023-04-02T00:19:37;101090.40;;;3.67;99.92
64632;BME280;58358;50.936;0.246;2023-04-02T00:22:01;101098.96;;;3.45;100.00
64632;BME280;58358;50.936;0.246;2023-04-02T00:24:27;101103.31;;;3.68;100.00
64632;BME280;58358;50.936;0.246;2023-04-02T00:26:52;101103.82;;;3.91;100.00
64632;BME280;58358;50.936;0.246;2023-04-02T00:29:19;101112.29;;;3.61;99.66
64632;BME280;58358;50.936;0.246;2023-04-02T00:31:46;101116.15;;;4.35;97.39
64632;BME280;58358;50.936;0.246;2023-04-02T00:34:17;101122.64;;;5.14;94.20
64632;BME280;58358;50.936;0.246;2023-04-02T00:36:36;101124.85;;;4.21;95.89
64632;BME280;58358;50.936;0.246;2023-04-02T00:39:06;101119.84;;;3.69;100.00
64632;BME280;58358;50.936;0.246;2023-04-02T00:41:30;101126.23;;;3.82;98.45
64632;BME280;58358;50.936;0.246;2023-04-02T00:43:53;101127.39;;;4.40;98.57
64632;BME280;58358;50.936;0.246;2023-04-02T00:46:21;101129.23;;;4.92;95.23
64632;BME280;58358;50.936;0.246;2023-04-02T00:48:49;101141.05;;;4.26;97.19
64632;BME280;58358;50.936;0.246;2023-04-02T00:51:15;101139.16;;;5.11;94.56
64632;BME280;58358;50.936;0.246;2023-04-02T00:53:37;101136.24;;;4.20;99.36
64632;BME280;58358;50.936;0.246;2023-04-02T00:56:02;101143.07;;;4.32;98.49
64632;BME280;58358;50.936;0.246;2023-04-02T00:58:30;101145.74;;;4.54;95.99
64632;BME280;58358;50.936;0.246;2023-04-02T01:00:53;101148.09;;;4.56;96.07
64632;BME280;58358;50.936;0.246;2023-04-02T01:03:31;101150.03;;;4.32;94.97
64632;BME280;58358;50.936;0.246;2023-04-02T01:05:47;101152.81;;;4.14;97.80
64632;BME280;58358;50.936;0.246;2023-04-02T01:08:15;101159.67;;;3.77;99.05
64632;BME280;58358;50.936;0.246;2023-04-02T01:10:49;101164.82;;;4.47;97.75
64632;BME280;58358;50.936;0.246;2023-04-02T01:13:11;101170.32;;;3.75;99.76
64632;BME280;58358;50.936;0.246;2023-04-02T01:15:32;101177.57;;;5.01;96.64
64632;BME280;58358;50.936;0.246;2023-04-02T01:18:03;101171.04;;;4.48;97.17
64632;BME280;58358;50.936;0.246;2023-04-02T01:20:37;101186.26;;;5.05;94.63
64632;BME280;58358;50.936;0.246;2023-04-02T01:22:50;101189.73;;;4.73;97.46
64632;BME280;58358;50.936;0.246;2023-04-02T01:25:13;101198.89;;;4.05;99.70
64632;BME280;58358;50.936;0.246;2023-04-02T01:27:41;101200.21;;;3.75;100.00
64632;BME280;58358;50.936;0.246;2023-04-02T01:30:05;101202.54;;;3.73;100.00
64632;BME280;58358;50.936;0.246;2023-04-02T01:32:29;101202.95;;;3.70;100.00
64632;BME280;58358;50.936;0.246;2023-04-02T01:34:55;101202.86;;;3.95;99.56
64632;BME280;58358;50.936;0.246;2023-04-02T01:37:29;101206.35;;;3.87;100.00
64632;BME280;58358;50.936;0.246;2023-04-02T01:39:57;101211.38;;;3.99;97.88
64632;BME280;58358;50.936;0.246;2023-04-02T01:42:17;101211.30;;;4.55;95.58
64632;BME280;58358;50.936;0.246;2023-04-02T01:44:41;101213.32;;;4.44;96.04
64632;BME280;58358;50.936;0.246;2023-04-02T01:47:09;101212.45;;;4.53;95.44
64632;BME280;58358;50.936;0.246;2023-04-02T01:49:30;101216.45;;;4.59;96.24
64632;BME280;58358;50.936;0.246;2023-04-02T01:51:55;101218.67;;;4.00;99.18
64632;BME280;58358;50.936;0.246;2023-04-02T01:54:22;101220.84;;;3.85;99.31
64632;BME280;58358;50.936;0.246;2023-04-02T01:56:47;101223.49;;;5.55;94.06
64632;BME280;58358;50.936;0.246;2023-04-02T01:59:18;101231.73;;;5.35;93.19
64632;BME280;58358;50.936;0.246;2023-04-02T02:01:42;101233.74;;;5.18;93.38
64632;BME280;58358;50.936;0.246;2023-04-02T02:04:05;101232.16;;;4.38;96.90
64632;BME280;58358;50.936;0.246;2023-04-02T02:06:30;101230.94;;;4.53;96.25
64632;BME280;58358;50.936;0.246;2023-04-02T02:08:59;101235.70;;;3.79;99.73
64632;BME280;58358;50.936;0.246;2023-04-02T02:11:24;101234.53;;;3.99;100.00
64632;BME280;58358;50.936;0.246;2023-04-02T02:13:52;101239.38;;;4.66;98.75
64632;BME280;58358;50.936;0.246;2023-04-02T02:16:15;101244.33;;;3.60;100.00
64632;BME280;58358;50.936;0.246;2023-04-02T02:18:40;101246.48;;;4.16;100.00
64632;BME280;58358;50.936;0.246;2023-04-02T02:21:07;101252.07;;;4.36;100.00
64632;BME280;58358;50.936;0.246;2023-04-02T02:23:31;101252.46;;;3.69;100.00
64632;BME280;58358;50.936;0.246;2023-04-02T02:25:57;101253.60;;;4.53;99.84
64632;BME280;58358;50.936;0.246;2023-04-02T02:28:26;101255.91;;;4.95;96.41
64632;BME280;58358;50.936;0.246;2023-04-02T02:30:51;101261.47;;;3.99;98.91
64632;BME280;58358;50.936;0.246;2023-04-02T02:33:17;101267.55;;;4.17;99.50
64632;BME280;58358;50.936;0.246;2023-04-02T02:35:43;101268.16;;;3.25;100.00
64632;BME280;58358;50.936;0.246;2023-04-02T02:40:38;101260.99;;;3.98;97.85
64632;BME280;58358;50.936;0.246;2023-04-02T02:43:00;101270.27;;;4.68;97.07
64632;BME280;58358;50.936;0.246;2023-04-02T02:45:25;101270.57;;;3.43;99.44
64632;BME280;58358;50.936;0.246;2023-04-02T02:47:49;101276.12;;;4.51;98.44
64632;BME280;58358;50.936;0.246;2023-04-02T02:50:19;101278.42;;;4.50;97.66
64632;BME280;58358;50.936;0.246;2023-04-02T02:52:45;101280.15;;;3.44;100.00
64632;BME280;58358;50.936;0.246;2023-04-02T02:55:09;101287.26;;;4.60;98.10
64632;BME280;58358;50.936;0.246;2023-04-02T02:57:34;101291.37;;;3.67;100.00
64632;BME280;58358;50.936;0.246;2023-04-02T02:59:58;101296.82;;;4.03;100.00
64632;BME280;58358;50.936;0.246;2023-04-02T03:02:23;101291.84;;;2.84;100.00
64632;BME280;58358;50.936;0.246;2023-04-02T03:04:49;101300.48;;;3.13;100.00
64632;BME280;58358;50.936;0.246;2023-04-02T03:07:14;101307.96;;;3.60;100.00
64632;BME280;58358;50.936;0.246;2023-04-02T03:09:45;101310.19;;;3.39;100.00
64632;BME280;58358;50.936;0.246;2023-04-02T03:12:22;101312.39;;;3.91;100.00
64632;BME280;58358;50.936;0.246;2023-04-02T03:14:34;101315.13;;;4.49;99.10
64632;BME280;58358;50.936;0.246;2023-04-02T03:17:01;101316.12;;;4.11;96.67
64632;BME280;58358;50.936;0.246;2023-04-02T03:19:28;101322.43;;;3.78;99.57
64632;BME280;58358;50.936;0.246;2023-04-02T03:21:51;101320.49;;;3.74;100.00
64632;BME280;58358;50.936;0.246;2023-04-02T03:24:17;101324.80;;;3.22;100.00
64632;BME280;58358;50.936;0.246;2023-04-02T03:26:41;101323.09;;;3.64;100.00
64632;BME280;58358;50.936;0.246;2023-04-02T03:29:16;101331.39;;;3.52;100.00
64632;BME280;58358;50.936;0.246;2023-04-02T03:31:33;101338.07;;;3.37;100.00
64632;BME280;58358;50.936;0.246;2023-04-02T03:33:58;101341.90;;;4.48;99.50
64632;BME280;58358;50.936;0.246;2023-04-02T03:36:25;101348.50;;;4.53;98.69
64632;BME280;58358;50.936;0.246;2023-04-02T03:38:49;101349.62;;;4.76;97.36
64632;BME280;58358;50.936;0.246;2023-04-02T03:41:17;101354.05;;;5.14;95.39
64632;BME280;58358;50.936;0.246;2023-04-02T03:43:41;101356.72;;;4.85;95.48
64632;BME280;58358;50.936;0.246;2023-04-02T03:46:12;101364.97;;;4.50;97.27
64632;BME280;58358;50.936;0.246;2023-04-02T03:48:37;101365.54;;;4.02;97.15
64632;BME280;58358;50.936;0.246;2023-04-02T03:50:58;101367.40;;;4.44;97.10
64632;BME280;58358;50.936;0.246;2023-04-02T03:53:22;101376.28;;;4.05;98.32
64632;BME280;58358;50.936;0.246;2023-04-02T03:55:45;101369.72;;;4.45;100.00
64632;BME280;58358;50.936;0.246;2023-04-02T03:58:15;101376.00;;;3.73;99.43
64632;BME280;58358;50.936;0.246;2023-04-02T04:00:42;101379.54;;;4.21;97.54
64632;BME280;58358;50.936;0.246;2023-04-02T04:03:08;101383.40;;;4.08;99.90
64632;BME280;58358;50.936;0.246;2023-04-02T04:05:29;101379.62;;;4.15;98.19
64632;BME280;58358;50.936;0.246;2023-04-02T04:07:58;101386.02;;;3.32;100.00
64632;BME280;58358;50.936;0.246;2023-04-02T04:10:22;101386.61;;;3.87;100.00
64632;BME280;58358;50.936;0.246;2023-04-02T04:12:46;101389.23;;;3.16;100.00
64632;BME280;58358;50.936;0.246;2023-04-02T04:15:16;101389.27;;;3.39;100.00
64632;BME280;58358;50.936;0.246;2023-04-02T04:17:41;101393.64;;;4.60;99.86
64632;BME280;58358;50.936;0.246;2023-04-02T04:20:08;101396.06;;;4.04;98.45
64632;BME280;58358;50.936;0.246;2023-04-02T04:22:28;101400.64;;;3.57;100.00
64632;BME280;58358;50.936;0.246;2023-04-02T04:24:52;101406.69;;;4.25;99.62
64632;BME280;58358;50.936;0.246;2023-04-02T04:27:24;101408.90;;;4.47;98.18
64632;BME280;58358;50.936;0.246;2023-04-02T04:29:48;101414.35;;;4.63;98.47
64632;BME280;58358;50.936;0.246;2023-04-02T04:32:17;101413.95;;;3.93;97.07
64632;BME280;58358;50.936;0.246;2023-04-02T04:34:37;101416.59;;;4.24;99.08
64632;BME280;58358;50.936;0.246;2023-04-02T04:37:04;101413.41;;;3.39;99.89
64632;BME280;58358;50.936;0.246;2023-04-02T04:39:33;101427.85;;;3.40;100.00
64632;BME280;58358;50.936;0.246;2023-04-02T04:41:53;101426.26;;;4.21;99.61
64632;BME280;58358;50.936;0.246;2023-04-02T04:44:22;101430.84;;;3.81;99.25
64632;BME280;58358;50.936;0.246;2023-04-02T04:46:48;101429.12;;;3.78;100.00
64632;BME280;58358;50.936;0.246;2023-04-02T04:49:14;101439.43;;;4.11;100.00
64632;BME280;58358;50.936;0.246;2023-04-02T04:51:37;101443.33;;;4.07;100.00
64632;BME280;58358;50.936;0.246;2023-04-02T04:54:00;101445.70;;;2.99;100.00
64632;BME280;58358;50.936;0.246;2023-04-02T04:56:28;101454.27;;;2.76;100.00
64632;BME280;58358;50.936;0.246;2023-04-02T04:58:54;101462.03;;;2.60;100.00
64632;BME280;58358;50.936;0.246;2023-04-02T05:01:22;101460.44;;;2.44;100.00
64632;BME280;58358;50.936;0.246;2023-04-02T05:03:47;101461.95;;;3.18;100.00
64632;BME280;58358;50.936;0.246;2023-04-02T05:06:12;101470.94;;;3.06;100.00
64632;BME280;58358;50.936;0.246;2023-04-02T05:08:38;101466.45;;;2.52;100.00
64632;BME280;58358;50.936;0.246;2023-04-02T05:11:02;101473.91;;;2.50;100.00
64632;BME280;58358;50.936;0.246;2023-04-02T05:13:30;101480.86;;;2.75;100.00
64632;BME280;58358;50.936;0.246;2023-04-02T05:15:56;101473.87;;;2.48;100.00
64632;BME280;58358;50.936;0.246;2023-04-02T05:18:22;101488.00;;;3.06;100.00
64632;BME280;58358;50.936;0.246;2023-04-02T05:20:45;101491.27;;;2.71;100.00
64632;BME280;58358;50.936;0.246;2023-04-02T05:23:14;101494.11;;;2.88;100.00
64632;BME280;58358;50.936;0.246;2023-04-02T05:25:32;101501.56;;;2.88;100.00
64632;BME280;58358;50.936;0.246;2023-04-02T05:28:01;101512.06;;;2.48;100.00
64632;BME280;58358;50.936;0.246;2023-04-02T05:30:40;101515.09;;;2.46;100.00
64632;BME280;58358;50.936;0.246;2023-04-02T05:32:53;101516.23;;;2.80;100.00
64632;BME280;58358;50.936;0.246;2023-04-02T05:35:16;101517.46;;;2.61;100.00
64632;BME280;58358;50.936;0.246;2023-04-02T05:37:40;101517.54;;;3.04;100.00
64632;BME280;58358;50.936;0.246;2023-04-02T05:40:13;101519.62;;;2.64;100.00
64632;BME280;58358;50.936;0.246;2023-04-02T05:42:34;101531.30;;;2.61;100.00
64632;BME280;58358;50.936;0.246;2023-04-02T05:45:12;101531.91;;;2.55;100.00
64632;BME280;58358;50.936;0.246;2023-04-02T05:47:24;101537.28;;;2.91;100.00
64632;BME280;58358;50.936;0.246;2023-04-02T05:49:50;101544.42;;;3.48;100.00
64632;BME280;58358;50.936;0.246;2023-04-02T05:52:15;101531.80;;;2.80;100.00
64632;BME280;58358;50.936;0.246;2023-04-02T05:54:43;101538.93;;;2.66;100.00
64632;BME280;58358;50.936;0.246;2023-04-02T05:57:08;101544.27;;;2.73;100.00
64632;BME280;58358;50.936;0.246;2023-04-02T05:59:32;101547.03;;;3.04;100.00
64632;BME280;58358;50.936;0.246;2023-04-02T06:01:57;101557.58;;;3.05;100.00
64632;BME280;58358;50.936;0.246;2023-04-02T06:04:24;101565.16;;;2.83;100.00
64632;BME280;58358;50.936;0.246;2023-04-02T06:06:49;101574.37;;;2.57;100.00
64632;BME280;58358;50.936;0.246;2023-04-02T06:09:14;101576.45;;;2.10;100.00
64632;BME280;58358;50.936;0.246;2023-04-02T06:11:39;101583.18;;;2.55;100.00
64632;BME280;58358;50.936;0.246;2023-04-02T06:14:02;101588.70;;;2.65;100.00
64632;BME280;58358;50.936;0.246;2023-04-02T06:16:28;101588.70;;;2.56;100.00
64632;BME280;58358;50.936;0.246;2023-04-02T06:18:54;101596.28;;;2.92;100.00
64632;BME280;58358;50.936;0.246;2023-04-02T06:21:20;101600.01;;;3.17;100.00
64632;BME280;58358;50.936;0.246;2023-04-02T06:23:47;101605.58;;;3.22;100.00
64632;BME280;58358;50.936;0.246;2023-04-02T06:26:16;101617.46;;;3.67;99.76
64632;BME280;58358;50.936;0.246;2023-04-02T06:28:41;101613.56;;;2.66;100.00
64632;BME280;58358;50.936;0.246;2023-04-02T06:31:07;101617.05;;;2.81;100.00
64632;BME280;58358;50.936;0.246;2023-04-02T06:33:26;101622.86;;;2.51;100.00
64632;BME280;58358;50.936;0.246;2023-04-02T06:35:51;101631.60;;;2.11;100.00
64632;BME280;58358;50.936;0.246;2023-04-02T06:38:19;101639.26;;;2.16;100.00
64632;BME280;58358;50.936;0.246;2023-04-02T06:40:46;101639.05;;;1.99;100.00
64632;BME280;58358;50.936;0.246;2023-04-02T06:43:15;101642.86;;;2.73;100.00
64632;BME280;58358;50.936;0.246;2023-04-02T06:45:38;101650.42;;;2.36;100.00
64632;BME280;58358;50.936;0.246;2023-04-02T06:48:01;101650.58;;;1.62;100.00
64632;BME280;58358;50.936;0.246;2023-04-02T06:50:27;101655.85;;;2.00;100.00
64632;BME280;58358;50.936;0.246;2023-04-02T06:52:52;101657.37;;;2.04;100.00
64632;BME280;58358;50.936;0.246;2023-04-02T06:55:27;101662.97;;;2.06;100.00
64632;BME280;58358;50.936;0.246;2023-04-02T06:57:42;101664.05;;;2.50;100.00
64632;BME280;58358;50.936;0.246;2023-04-02T07:00:19;101672.29;;;1.69;100.00
64632;BME280;58358;50.936;0.246;2023-04-02T07:02:35;101681.41;;;2.22;99.35
64632;BME280;58358;50.936;0.246;2023-04-02T07:05:02;101681.65;;;2.97;96.90
64632;BME280;58358;50.936;0.246;2023-04-02T07:07:24;101676.24;;;2.29;96.43
64632;BME280;58358;50.936;0.246;2023-04-02T07:09:49;101668.83;;;2.49;97.40
64632;BME280;58358;50.936;0.246;2023-04-02T07:12:21;101677.49;;;1.84;99.78
64632;BME280;58358;50.936;0.246;2023-04-02T07:14:40;101677.48;;;2.36;97.79
64632;BME280;58358;50.936;0.246;2023-04-02T07:17:08;101680.31;;;2.88;95.02
64632;BME280;58358;50.936;0.246;2023-04-02T07:19:31;101694.90;;;2.75;95.61
64632;BME280;58358;50.936;0.246;2023-04-02T07:21:57;101672.76;;;2.41;96.29
64632;BME280;58358;50.936;0.246;2023-04-02T07:24:22;101697.50;;;2.24;98.40
64632;BME280;58358;50.936;0.246;2023-04-02T07:26:48;101695.19;;;1.77;98.83
64632;BME280;58358;50.936;0.246;2023-04-02T07:29:14;101702.42;;;2.52;96.28
64632;BME280;58358;50.936;0.246;2023-04-02T07:31:39;101707.33;;;3.24;94.43
64632;BME280;58358;50.936;0.246;2023-04-02T07:34:04;101718.57;;;3.70;91.38
64632;BME280;58358;50.936;0.246;2023-04-02T07:36:29;101729.90;;;2.98;89.85
64632;BME280;58358;50.936;0.246;2023-04-02T07:38:54;101728.52;;;2.91;92.97
64632;BME280;58358;50.936;0.246;2023-04-02T07:41:20;101723.33;;;2.41;95.45
64632;BME280;58358;50.936;0.246;2023-04-02T07:43:46;101735.61;;;2.49;94.98
64632;BME280;58358;50.936;0.246;2023-04-02T07:46:12;101735.88;;;2.55;94.06
64632;BME280;58358;50.936;0.246;2023-04-02T07:48:36;101732.65;;;3.07;93.72
64632;BME280;58358;50.936;0.246;2023-04-02T07:51:02;101736.93;;;3.39;92.33
64632;BME280;58358;50.936;0.246;2023-04-02T07:53:29;101729.95;;;3.10;92.12
64632;BME280;58358;50.936;0.246;2023-04-02T07:55:52;101727.95;;;2.29;94.32
64632;BME280;58358;50.936;0.246;2023-04-02T07:58:18;101739.14;;;2.56;95.80
64632;BME280;58358;50.936;0.246;2023-04-02T08:00:44;101733.99;;;2.81;93.91
64632;BME280;58358;50.936;0.246;2023-04-02T08:03:12;101750.61;;;3.02;93.46
64632;BME280;58358;50.936;0.246;2023-04-02T08:05:36;101755.13;;;2.57;94.77
64632;BME280;58358;50.936;0.246;2023-04-02T08:08:01;101756.77;;;3.03;94.01
64632;BME280;58358;50.936;0.246;2023-04-02T08:10:27;101755.08;;;2.48;94.89
64632;BME280;58358;50.936;0.246;2023-04-02T08:12:53;101761.35;;;2.93;96.16
64632;BME280;58358;50.936;0.246;2023-04-02T08:15:19;101762.35;;;2.40;97.11
64632;BME280;58358;50.936;0.246;2023-04-02T08:17:45;101771.42;;;2.31;97.33
64632;BME280;58358;50.936;0.246;2023-04-02T08:20:14;101771.20;;;2.53;94.42
64632;BME280;58358;50.936;0.246;2023-04-02T08:22:35;101776.95;;;2.75;94.42
64632;BME280;58358;50.936;0.246;2023-04-02T08:25:01;101790.66;;;2.56;94.69
64632;BME280;58358;50.936;0.246;2023-04-02T08:27:26;101795.32;;;2.68;94.02
64632;BME280;58358;50.936;0.246;2023-04-02T08:29:51;101801.02;;;3.57;91.28
64632;BME280;58358;50.936;0.246;2023-04-02T08:32:17;101802.68;;;4.13;87.71
64632;BME280;58358;50.936;0.246;2023-04-02T08:34:44;101802.17;;;3.53;89.55
64632;BME280;58358;50.936;0.246;2023-04-02T08:37:10;101810.26;;;3.71;88.61
64632;BME280;58358;50.936;0.246;2023-04-02T08:39:35;101820.12;;;3.61;90.06
64632;BME280;58358;50.936;0.246;2023-04-02T08:42:05;101815.86;;;4.20;88.19
64632;BME280;58358;50.936;0.246;2023-04-02T08:44:36;101819.14;;;3.21;90.80
64632;BME280;58358;50.936;0.246;2023-04-02T08:46:54;101822.45;;;3.39;91.59
64632;BME280;58358;50.936;0.246;2023-04-02T08:49:24;101821.13;;;4.09;89.11
64632;BME280;58358;50.936;0.246;2023-04-02T08:51:43;101825.72;;;4.30;87.08
64632;BME280;58358;50.936;0.246;2023-04-02T08:54:16;101823.44;;;4.01;89.34
64632;BME280;58358;50.936;0.246;2023-04-02T08:56:39;101832.60;;;3.17;92.38
64632;BME280;58358;50.936;0.246;2023-04-02T08:59:02;101829.04;;;3.02;92.13
64632;BME280;58358;50.936;0.246;2023-04-02T09:01:34;101831.62;;;3.68;90.22
64632;BME280;58358;50.936;0.246;2023-04-02T09:03:54;101836.31;;;3.51;90.96
64632;BME280;58358;50.936;0.246;2023-04-02T09:06:18;101845.86;;;2.89;90.65
64632;BME280;58358;50.936;0.246;2023-04-02T09:08:43;101847.30;;;3.84;89.29
64632;BME280;58358;50.936;0.246;2023-04-02T09:11:13;101850.62;;;4.01;86.92
64632;BME280;58358;50.936;0.246;2023-04-02T09:13:35;101851.77;;;4.13;86.63
64632;BME280;58358;50.936;0.246;2023-04-02T09:16:05;101852.78;;;3.89;84.82
64632;BME280;58358;50.936;0.246;2023-04-02T09:18:27;101857.79;;;3.57;87.45
64632;BME280;58358;50.936;0.246;2023-04-02T09:20:50;101867.09;;;3.64;86.62
64632;BME280;58358;50.936;0.246;2023-04-02T09:23:18;101864.76;;;3.18;87.38
64632;BME280;58358;50.936;0.246;2023-04-02T09:25:44;101874.70;;;3.49;86.57
64632;BME280;58358;50.936;0.246;2023-04-02T09:28:10;101874.60;;;4.20;85.21
64632;BME280;58358;50.936;0.246;2023-04-02T09:30:49;101890.01;;;4.23;84.01
64632;BME280;58358;50.936;0.246;2023-04-02T09:33:01;101885.07;;;3.94;83.93
64632;BME280;58358;50.936;0.246;2023-04-02T09:35:27;101891.90;;;4.21;82.26
64632;BME280;58358;50.936;0.246;2023-04-02T09:40:23;101889.76;;;4.84;78.85
64632;BME280;58358;50.936;0.246;2023-04-02T09:42:43;101891.45;;;6.26;75.12
64632;BME280;58358;50.936;0.246;2023-04-02T09:45:13;101891.00;;;6.87;71.02
64632;BME280;58358;50.936;0.246;2023-04-02T09:47:34;101895.22;;;6.58;68.80
64632;BME280;58358;50.936;0.246;2023-04-02T09:52:27;101899.56;;;5.57;72.11
64632;BME280;58358;50.936;0.246;2023-04-02T09:55:09;101894.72;;;5.75;72.04
64632;BME280;58358;50.936;0.246;2023-04-02T09:57:19;101912.92;;;5.19;71.45
64632;BME280;58358;50.936;0.246;2023-04-02T09:59:43;101920.84;;;4.61;71.80
64632;BME280;58358;50.936;0.246;2023-04-02T10:04:36;101924.53;;;5.16;72.06
64632;BME280;58358;50.936;0.246;2023-04-02T10:07:01;101924.60;;;5.36;69.54
64632;BME280;58358;50.936;0.246;2023-04-02T10:09:29;101927.63;;;4.24;70.37
64632;BME280;58358;50.936;0.246;2023-04-02T10:11:53;101927.51;;;4.85;69.46
64632;BME280;58358;50.936;0.246;2023-04-02T10:14:21;101932.08;;;4.86;69.56
64632;BME280;58358;50.936;0.246;2023-04-02T10:16:47;101932.08;;;4.53;71.28
64632;BME280;58358;50.936;0.246;2023-04-02T10:19:15;101927.98;;;4.62;71.66
64632;BME280;58358;50.936;0.246;2023-04-02T10:21:36;101914.65;;;4.54;70.46
64632;BME280;58358;50.936;0.246;2023-04-02T10:24:01;101925.80;;;5.06;68.56
64632;BME280;58358;50.936;0.246;2023-04-02T10:26:37;101928.41;;;4.32;71.76
64632;BME280;58358;50.936;0.246;2023-04-02T10:29:05;101935.35;;;4.59;70.93
64632;BME280;58358;50.936;0.246;2023-04-02T10:31:22;101933.49;;;5.00;69.05
64632;BME280;58358;50.936;0.246;2023-04-02T10:33:48;101936.47;;;5.21;69.76
64632;BME280;58358;50.936;0.246;2023-04-02T10:36:17;101941.52;;;4.55;70.82
64632;BME280;58358;50.936;0.246;2023-04-02T10:38:41;101949.09;;;4.90;69.33
64632;BME280;58358;50.936;0.246;2023-04-02T10:41:10;101949.19;;;4.62;69.91
64632;BME280;58358;50.936;0.246;2023-04-02T10:43:40;101948.71;;;4.98;71.13
64632;BME280;58358;50.936;0.246;2023-04-02T10:45:58;101944.76;;;5.15;69.92
64632;BME280;58358;50.936;0.246;2023-04-02T10:48:25;101950.57;;;5.26;65.86
64632;BME280;58358;50.936;0.246;2023-04-02T10:50:48;101955.44;;;5.41;66.19
64632;BME280;58358;50.936;0.246;2023-04-02T10:53:13;101964.75;;;4.97;67.20
64632;BME280;58358;50.936;0.246;2023-04-02T10:55:38;101956.60;;;5.23;67.32
64632;BME280;58358;50.936;0.246;2023-04-02T10:58:06;101961.16;;;6.09;66.54
64632;BME280;58358;50.936;0.246;2023-04-02T11:00:28;101966.72;;;6.05;66.20
64632;BME280;58358;50.936;0.246;2023-04-02T11:02:57;101971.18;;;7.11;63.02
64632;BME280;58358;50.936;0.246;2023-04-02T11:05:25;101967.49;;;5.99;63.80
64632;BME280;58358;50.936;0.246;2023-04-02T11:07:52;101969.68;;;7.17;62.71
64632;BME280;58358;50.936;0.246;2023-04-02T11:10:14;101962.71;;;5.87;63.59
64632;BME280;58358;50.936;0.246;2023-04-02T11:12:40;101968.50;;;5.27;66.71
64632;BME280;58358;50.936;0.246;2023-04-02T11:15:01;101971.94;;;5.62;66.27
64632;BME280;58358;50.936;0.246;2023-04-02T11:17:27;101973.02;;;5.78;65.15
64632;BME280;58358;50.936;0.246;2023-04-02T11:19:52;101969.33;;;5.14;67.45
64632;BME280;58358;50.936;0.246;2023-04-02T11:22:19;101971.47;;;5.29;67.87
64632;BME280;58358;50.936;0.246;2023-04-02T11:24:45;101978.73;;;5.80;69.03
64632;BME280;58358;50.936;0.246;2023-04-02T11:27:16;101972.35;;;5.44;67.73
64632;BME280;58358;50.936;0.246;2023-04-02T11:29:36;101979.63;;;6.27;65.39
64632;BME280;58358;50.936;0.246;2023-04-02T11:32:13;101976.17;;;5.21;66.24
64632;BME280;58358;50.936;0.246;2023-04-02T11:37:00;101978.66;;;5.69;64.31
64632;BME280;58358;50.936;0.246;2023-04-02T11:42:00;101974.16;;;5.31;62.17
64632;BME280;58358;50.936;0.246;2023-04-02T11:46:42;101987.03;;;5.19;64.66
64632;BME280;58358;50.936;0.246;2023-04-02T11:53:52;101991.43;;;5.59;64.61
64632;BME280;58358;50.936;0.246;2023-04-02T11:56:19;101991.89;;;5.92;63.19
64632;BME280;58358;50.936;0.246;2023-04-02T11:58:52;101998.72;;;5.86;64.13
64632;BME280;58358;50.936;0.246;2023-04-02T12:01:25;101995.58;;;5.79;64.26
64632;BME280;58358;50.936;0.246;2023-04-02T12:03:47;101990.69;;;5.71;61.16
64632;BME280;58358;50.936;0.246;2023-04-02T12:06:06;101998.14;;;6.27;62.12
64632;BME280;58358;50.936;0.246;2023-04-02T12:08:35;101998.27;;;5.95;61.62
64632;BME280;58358;50.936;0.246;2023-04-02T12:10:55;102003.91;;;6.37;59.98
64632;BME280;58358;50.936;0.246;2023-04-02T12:13:18;102006.12;;;6.15;58.91
64632;BME280;58358;50.936;0.246;2023-04-02T12:15:45;102004.24;;;6.47;59.69
64632;BME280;58358;50.936;0.246;2023-04-02T12:18:14;102011.16;;;6.31;59.58
64632;BME280;58358;50.936;0.246;2023-04-02T12:20:35;102016.05;;;5.92;60.05
64632;BME280;58358;50.936;0.246;2023-04-02T12:23:01;102023.57;;;6.69;60.03
64632;BME280;58358;50.936;0.246;2023-04-02T12:25:30;102030.35;;;6.49;59.79
64632;BME280;58358;50.936;0.246;2023-04-02T12:28:03;102036.66;;;6.68;57.87
64632;BME280;58358;50.936;0.246;2023-04-02T12:30:20;102038.37;;;6.52;59.22
64632;BME280;58358;50.936;0.246;2023-04-02T12:32:44;102037.65;;;6.67;58.89
64632;BME280;58358;50.936;0.246;2023-04-02T12:37:35;102038.36;;;6.59;57.41
64632;BME280;58358;50.936;0.246;2023-04-02T12:40:03;102040.86;;;6.34;59.01
64632;BME280;58358;50.936;0.246;2023-04-02T12:42:30;102046.86;;;6.77;59.43
64632;BME280;58358;50.936;0.246;2023-04-02T12:44:53;102052.54;;;6.34;57.51
64632;BME280;58358;50.936;0.246;2023-04-02T12:47:18;102054.05;;;6.96;57.47
64632;BME280;58358;50.936;0.246;2023-04-02T12:49:45;102044.08;;;7.09;56.30
64632;BME280;58358;50.936;0.246;2023-04-02T12:52:12;102039.03;;;7.75;54.13
64632;BME280;58358;50.936;0.246;2023-04-02T12:54:42;102039.39;;;7.19;54.41
64632;BME280;58358;50.936;0.246;2023-04-02T12:57:20;102036.48;;;5.96;54.59
64632;BME280;58358;50.936;0.246;2023-04-02T12:59:32;102044.60;;;5.95;54.85
64632;BME280;58358;50.936;0.246;2023-04-02T13:01:55;102042.34;;;6.43;56.97
64632;BME280;58358;50.936;0.246;2023-04-02T13:04:19;102040.83;;;6.49;56.71
64632;BME280;58358;50.936;0.246;2023-04-02T13:06:48;102044.86;;;7.54;56.02
64632;BME280;58358;50.936;0.246;2023-04-02T13:11:38;102049.73;;;6.69;56.30
64632;BME280;58358;50.936;0.246;2023-04-02T13:14:04;102041.78;;;7.13;54.51
64632;BME280;58358;50.936;0.246;2023-04-02T13:16:32;102051.28;;;7.01;56.38